createdAt,value
2022-12-25T00:00:32.824Z,4.99
2022-12-25T00:02:59.405Z,4.98
2022-12-25T00:05:25.916Z,4.91
2022-12-25T00:07:52.357Z,4.84
2022-12-25T00:10:18.869Z,4.82
2022-12-25T00:12:45.294Z,4.78
2022-12-25T00:15:11.719Z,4.80
2022-12-25T00:17:38.717Z,4.81
2022-12-25T00:20:05.751Z,4.88
2022-12-25T00:22:32.169Z,4.99
2022-12-25T00:24:58.600Z,5.07
2022-12-25T00:27:25.010Z,5.11
2022-12-25T00:29:51.685Z,5.10
2022-12-25T00:32:18.115Z,5.11
2022-12-25T00:34:44.559Z,5.11
2022-12-25T00:37:13.052Z,5.12
2022-12-25T00:39:40.618Z,5.11
2022-12-25T00:42:07.064Z,5.10
2022-12-25T00:44:33.547Z,5.04
2022-12-25T00:47:02.341Z,4.98
2022-12-25T00:49:29.992Z,4.93
2022-12-25T00:51:56.622Z,4.94
2022-12-25T00:54:23.037Z,4.90
2022-12-25T00:56:49.481Z,4.89
2022-12-25T00:59:15.897Z,4.85
2022-12-25T01:01:42.580Z,4.81
2022-12-25T01:04:10.508Z,4.77
2022-12-25T01:06:36.970Z,4.73
2022-12-25T01:09:03.520Z,4.71
2022-12-25T01:11:30.062Z,4.69
2022-12-25T01:13:56.476Z,4.68
2022-12-25T01:16:22.955Z,4.68
2022-12-25T01:18:49.392Z,4.65
2022-12-25T01:21:16.396Z,4.62
2022-12-25T01:23:43.482Z,4.65
2022-12-25T01:26:10.950Z,4.68
2022-12-25T01:28:37.476Z,4.69
2022-12-25T01:31:04.411Z,4.68
2022-12-25T01:33:30.833Z,4.66
2022-12-25T01:35:57.290Z,4.64
2022-12-25T01:38:23.779Z,4.60
2022-12-25T01:40:50.214Z,4.54
2022-12-25T01:43:30.489Z,4.50
2022-12-25T01:45:57.010Z,4.54
2022-12-25T01:48:26.672Z,4.57
2022-12-25T01:50:58.784Z,4.63
2022-12-25T01:53:25.514Z,4.67
2022-12-25T01:55:55.993Z,4.68
2022-12-25T01:58:22.443Z,4.68
2022-12-25T02:00:48.862Z,4.71
2022-12-25T02:03:15.366Z,4.74
2022-12-25T02:05:41.809Z,4.77
2022-12-25T02:08:10.014Z,4.81
2022-12-25T02:10:36.460Z,4.86
2022-12-25T02:13:02.916Z,4.96
2022-12-25T02:15:52.720Z,4.98
2022-12-25T02:18:31.324Z,4.98
2022-12-25T02:21:19.575Z,5.01
2022-12-25T02:24:20.665Z,5.00
2022-12-25T02:26:49.716Z,4.97
2022-12-25T02:29:30.750Z,4.91
2022-12-25T02:32:05.507Z,4.85
2022-12-25T02:34:34.073Z,4.84
2022-12-25T02:37:26.561Z,4.81
2022-12-25T02:40:16.029Z,4.79
2022-12-25T02:42:55.863Z,4.75
2022-12-25T02:45:43.415Z,4.75
2022-12-25T02:48:09.712Z,4.71
2022-12-25T02:50:36.183Z,4.65
2022-12-25T02:53:02.638Z,4.64
2022-12-25T02:55:32.712Z,4.62
2022-12-25T02:58:01.592Z,4.61
2022-12-25T03:00:28.071Z,4.62
2022-12-25T03:02:54.565Z,4.58
2022-12-25T03:05:23.383Z,4.55
2022-12-25T03:07:49.801Z,4.46
2022-12-25T03:10:16.245Z,4.37
2022-12-25T03:12:46.566Z,4.30
2022-12-25T03:15:13.010Z,4.25
2022-12-25T03:17:39.425Z,4.24
2022-12-25T03:20:06.400Z,4.19
2022-12-25T03:22:32.854Z,4.20
2022-12-25T03:24:59.299Z,4.24
2022-12-25T03:27:25.825Z,4.15
2022-12-25T03:29:52.291Z,4.21
2022-12-25T03:32:37.585Z,4.28
2022-12-25T03:35:48.556Z,4.34
2022-12-25T03:38:20.836Z,4.36
2022-12-25T03:41:00.900Z,4.43
2022-12-25T03:43:48.495Z,4.47
2022-12-25T03:46:15.277Z,4.45
2022-12-25T03:48:42.624Z,4.42
2022-12-25T03:51:09.964Z,4.55
2022-12-25T03:53:41.630Z,4.61
2022-12-25T03:56:08.036Z,4.66
2022-12-25T03:58:34.474Z,4.69
2022-12-25T04:01:00.969Z,4.71
2022-12-25T04:03:27.490Z,4.73
2022-12-25T04:05:53.965Z,4.71
2022-12-25T04:08:20.405Z,4.71
2022-12-25T04:10:46.832Z,4.65
2022-12-25T04:13:13.245Z,4.59
2022-12-25T04:15:39.725Z,4.51
2022-12-25T04:18:06.151Z,4.51
2022-12-25T04:20:32.619Z,4.55
2022-12-25T04:22:59.065Z,4.54
2022-12-25T04:25:25.513Z,4.67
2022-12-25T04:27:51.939Z,4.72
2022-12-25T04:30:18.395Z,4.80
2022-12-25T04:32:44.852Z,4.86
2022-12-25T04:35:11.450Z,4.89
2022-12-25T04:37:37.880Z,4.89
2022-12-25T04:40:04.824Z,4.85
2022-12-25T04:42:31.263Z,4.82
2022-12-25T04:44:57.660Z,4.83
2022-12-25T04:47:24.086Z,4.74
2022-12-25T04:49:50.534Z,4.72
2022-12-25T04:52:16.945Z,4.70
2022-12-25T04:54:43.395Z,4.70
2022-12-25T04:57:09.843Z,4.75
2022-12-25T04:59:36.275Z,4.76
2022-12-25T05:02:02.762Z,4.80
2022-12-25T05:04:29.287Z,4.78
2022-12-25T05:06:55.714Z,4.77
2022-12-25T05:09:22.169Z,4.77
2022-12-25T05:11:48.595Z,4.76
2022-12-25T05:14:15.353Z,4.72
2022-12-25T05:16:41.963Z,4.71
2022-12-25T05:19:08.381Z,4.70
2022-12-25T05:21:34.823Z,4.74
2022-12-25T05:24:01.243Z,4.76
2022-12-25T05:26:27.695Z,4.74
2022-12-25T05:28:54.290Z,4.71
2022-12-25T05:31:21.008Z,4.69
2022-12-25T05:33:51.300Z,4.69
2022-12-25T05:36:17.991Z,4.70
2022-12-25T05:38:44.399Z,4.67
2022-12-25T05:41:10.822Z,4.63
2022-12-25T05:43:37.251Z,4.58
2022-12-25T05:46:07.614Z,4.56
2022-12-25T05:48:34.621Z,4.61
2022-12-25T05:51:05.892Z,4.60
2022-12-25T05:53:32.339Z,4.59
2022-12-25T05:56:03.816Z,4.62
2022-12-25T05:58:30.990Z,4.65
2022-12-25T06:00:57.481Z,4.66
2022-12-25T06:03:24.192Z,4.63
2022-12-25T06:05:50.704Z,4.58
2022-12-25T06:08:17.120Z,4.56
2022-12-25T06:10:43.558Z,4.55
2022-12-25T06:13:09.968Z,4.50
2022-12-25T06:15:39.436Z,4.47
2022-12-25T06:18:06.108Z,4.45
2022-12-25T06:20:32.588Z,4.44
2022-12-25T06:22:59.045Z,4.43
2022-12-25T06:25:25.487Z,4.48
2022-12-25T06:27:51.911Z,4.46
2022-12-25T06:30:18.367Z,4.44
2022-12-25T06:32:44.785Z,4.43
2022-12-25T06:35:11.181Z,4.44
2022-12-25T06:37:37.622Z,4.47
2022-12-25T06:40:04.437Z,4.52
2022-12-25T06:42:30.908Z,4.60
2022-12-25T06:44:57.391Z,4.67
2022-12-25T06:47:23.801Z,4.72
2022-12-25T06:49:50.206Z,4.72
2022-12-25T06:52:16.625Z,4.73
2022-12-25T06:54:43.071Z,4.72
2022-12-25T06:57:09.511Z,4.64
2022-12-25T06:59:36.152Z,4.67
2022-12-25T07:02:02.720Z,4.64
2022-12-25T07:04:34.180Z,4.62
2022-12-25T07:07:06.119Z,4.59
2022-12-25T07:09:35.017Z,4.57
2022-12-25T07:12:15.161Z,4.60
2022-12-25T07:14:41.826Z,4.63
2022-12-25T07:17:08.262Z,4.68
2022-12-25T07:19:38.235Z,4.75
2022-12-25T07:22:07.585Z,4.80
2022-12-25T07:24:34.032Z,4.84
2022-12-25T07:27:00.490Z,4.91
2022-12-25T07:29:26.926Z,4.94
2022-12-25T07:31:53.407Z,4.96
2022-12-25T07:34:19.877Z,4.96
2022-12-25T07:36:46.496Z,4.96
2022-12-25T07:39:12.931Z,4.96
2022-12-25T07:41:39.365Z,4.96
2022-12-25T07:44:05.812Z,4.96
2022-12-25T07:46:32.226Z,4.95
2022-12-25T07:48:58.652Z,4.95
2022-12-25T07:51:25.061Z,4.97
2022-12-25T07:53:51.493Z,4.99
2022-12-25T07:56:19.053Z,5.01
2022-12-25T07:58:45.580Z,5.02
2022-12-25T08:01:17.276Z,5.04
2022-12-25T08:03:44.087Z,5.04
2022-12-25T08:06:10.809Z,5.09
2022-12-25T08:08:37.753Z,5.17
2022-12-25T08:11:04.463Z,5.23
2022-12-25T08:13:31.475Z,5.25
2022-12-25T08:16:01.244Z,5.30
2022-12-25T08:18:30.244Z,5.33
2022-12-25T08:20:56.977Z,5.36
2022-12-25T08:23:23.391Z,5.40
2022-12-25T08:25:49.878Z,5.40
2022-12-25T08:28:16.330Z,5.40
2022-12-25T08:30:42.771Z,5.43
2022-12-25T08:33:09.224Z,5.47
2022-12-25T08:35:35.791Z,5.49
2022-12-25T08:38:02.226Z,5.50
2022-12-25T08:40:29.521Z,5.54
2022-12-25T08:42:56.587Z,5.57
2022-12-25T08:45:23.030Z,5.58
2022-12-25T08:48:42.099Z,5.60
2022-12-25T08:51:10.635Z,5.57
2022-12-25T08:53:37.098Z,5.63
2022-12-25T08:56:03.825Z,5.63
2022-12-25T08:58:30.279Z,5.65
2022-12-25T09:00:56.849Z,5.66
2022-12-25T09:03:23.908Z,5.67
2022-12-25T09:05:51.089Z,5.70
2022-12-25T09:08:17.551Z,5.72
2022-12-25T09:10:43.993Z,5.76
2022-12-25T09:13:10.421Z,5.76
2022-12-25T09:15:38.573Z,5.78
2022-12-25T09:18:05.393Z,5.82
2022-12-25T09:20:31.863Z,5.84
2022-12-25T09:22:58.404Z,5.84
2022-12-25T09:25:24.896Z,5.85
2022-12-25T09:27:51.325Z,5.87
2022-12-25T09:30:17.761Z,5.90
2022-12-25T09:32:44.235Z,5.96
2022-12-25T09:35:10.775Z,5.98
2022-12-25T09:37:37.335Z,6.02
2022-12-25T09:40:04.222Z,6.05
2022-12-25T09:42:30.937Z,6.06
2022-12-25T09:44:58.875Z,6.08
2022-12-25T09:47:29.831Z,6.06
2022-12-25T09:50:01.160Z,6.09
2022-12-25T09:52:42.710Z,6.08
2022-12-25T09:55:19.756Z,6.08
2022-12-25T09:57:50.565Z,6.06
2022-12-25T10:00:19.663Z,6.10
2022-12-25T10:03:12.467Z,6.13
2022-12-25T10:06:07.946Z,6.18
2022-12-25T10:09:07.441Z,6.22
2022-12-25T10:11:33.723Z,6.27
2022-12-25T10:14:20.335Z,6.28
2022-12-25T10:16:59.531Z,6.30
2022-12-25T10:19:35.406Z,6.32
2022-12-25T10:22:02.362Z,6.33
2022-12-25T10:24:33.539Z,6.32
2022-12-25T10:27:01.186Z,6.30
2022-12-25T10:29:27.618Z,6.34
2022-12-25T10:31:54.928Z,6.36
2022-12-25T10:34:21.391Z,6.40
2022-12-25T10:36:50.122Z,6.43
2022-12-25T10:39:21.639Z,6.44
2022-12-25T10:42:00.524Z,6.46
2022-12-25T10:44:26.972Z,6.47
2022-12-25T10:46:57.809Z,6.44
2022-12-25T10:49:27.006Z,6.50
2022-12-25T10:51:53.806Z,6.53
2022-12-25T10:54:23.087Z,6.56
2022-12-25T10:57:03.896Z,6.59
2022-12-25T10:59:34.485Z,6.65
2022-12-25T11:02:10.141Z,6.67
2022-12-25T11:04:36.659Z,6.70
2022-12-25T11:07:20.382Z,6.71
2022-12-25T11:09:57.831Z,6.74
2022-12-25T11:12:31.743Z,6.70
2022-12-25T11:15:04.087Z,6.78
2022-12-25T11:17:30.531Z,6.81
2022-12-25T11:19:58.363Z,6.84
2022-12-25T11:22:25.127Z,6.86
2022-12-25T11:24:51.571Z,6.88
2022-12-25T11:27:21.762Z,6.87
2022-12-25T11:29:56.399Z,6.86
2022-12-25T11:32:25.387Z,6.85
2022-12-25T11:34:51.809Z,6.85
2022-12-25T11:37:37.525Z,6.84
2022-12-25T11:40:04.990Z,6.81
2022-12-25T11:42:38.932Z,6.83
2022-12-25T11:45:06.855Z,6.85
2022-12-25T11:47:55.058Z,6.84
2022-12-25T11:50:27.266Z,6.81
2022-12-25T11:52:53.890Z,6.80
2022-12-25T11:55:42.663Z,6.83
2022-12-25T11:58:22.998Z,6.82
2022-12-25T12:00:50.009Z,6.84
2022-12-25T12:03:27.475Z,6.83
2022-12-25T12:05:57.466Z,6.91
2022-12-25T12:08:23.903Z,6.95
2022-12-25T12:11:18.019Z,6.95
2022-12-25T12:14:14.101Z,6.97
2022-12-25T12:16:42.878Z,6.98
2022-12-25T12:19:29.235Z,7.02
2022-12-25T12:21:56.708Z,7.03
2022-12-25T12:24:23.160Z,7.04
2022-12-25T12:27:06.017Z,7.00
2022-12-25T12:29:44.742Z,7.04
2022-12-25T12:32:26.270Z,7.04
2022-12-25T12:34:52.831Z,7.02
2022-12-25T12:37:26.014Z,7.03
2022-12-25T12:39:55.540Z,7.07
2022-12-25T12:42:26.212Z,7.10
2022-12-25T12:44:53.313Z,7.12
2022-12-25T12:47:28.546Z,7.15
2022-12-25T12:49:58.825Z,7.17
2022-12-25T12:52:30.949Z,7.19
2022-12-25T12:55:05.880Z,7.20
2022-12-25T12:57:33.404Z,7.19
2022-12-25T13:00:04.850Z,7.17
2022-12-25T13:02:48.504Z,7.19
2022-12-25T13:05:20.410Z,7.19
2022-12-25T13:07:58.893Z,7.21
2022-12-25T13:10:27.176Z,7.20
2022-12-25T13:12:55.010Z,7.19
2022-12-25T13:15:21.479Z,7.22
2022-12-25T13:17:47.892Z,7.22
2022-12-25T13:20:22.799Z,7.21
2022-12-25T13:22:52.909Z,7.14
2022-12-25T13:25:22.830Z,7.17
2022-12-25T13:27:56.591Z,7.16
2022-12-25T13:30:23.531Z,7.16
2022-12-25T13:32:50.101Z,7.16
2022-12-25T13:35:16.608Z,7.14
2022-12-25T13:37:43.410Z,7.13
2022-12-25T13:40:39.278Z,7.14
2022-12-25T13:43:05.869Z,7.14
2022-12-25T13:45:32.399Z,7.11
2022-12-25T13:48:17.840Z,7.10
2022-12-25T13:50:44.256Z,7.06
2022-12-25T13:53:12.913Z,7.04
2022-12-25T13:55:39.353Z,7.02
2022-12-25T13:58:09.254Z,7.00
2022-12-25T14:00:39.517Z,6.97
2022-12-25T14:03:07.187Z,6.92
2022-12-25T14:05:42.087Z,6.94
2022-12-25T14:08:14.854Z,6.96
2022-12-25T14:10:41.383Z,6.95
2022-12-25T14:13:11.050Z,6.93
2022-12-25T14:15:39.742Z,6.89
2022-12-25T14:18:06.319Z,6.89
2022-12-25T14:20:41.199Z,6.90
2022-12-25T14:23:07.791Z,6.85
2022-12-25T14:25:40.665Z,6.91
2022-12-25T14:28:09.702Z,6.86
2022-12-25T14:30:36.405Z,6.88
2022-12-25T14:33:02.898Z,6.94
2022-12-25T14:35:29.333Z,6.95
2022-12-25T14:37:57.079Z,6.91
2022-12-25T14:40:28.482Z,6.91
2022-12-25T14:43:05.603Z,6.91
2022-12-25T14:45:36.240Z,6.88
2022-12-25T14:48:17.460Z,6.86
2022-12-25T14:51:00.923Z,6.86
2022-12-25T14:53:56.670Z,6.86
2022-12-25T14:56:24.365Z,6.84
2022-12-25T14:59:00.866Z,6.82
2022-12-25T15:01:34.081Z,6.82
2022-12-25T15:04:10.520Z,6.81
2022-12-25T15:06:40.792Z,6.81
2022-12-25T15:09:15.274Z,6.83
2022-12-25T15:11:41.731Z,6.83
2022-12-25T15:14:08.142Z,6.83
2022-12-25T15:16:41.181Z,6.84
2022-12-25T15:19:08.231Z,6.83
2022-12-25T15:21:36.275Z,6.80
2022-12-25T15:24:02.776Z,6.83
2022-12-25T15:26:30.441Z,6.83
2022-12-25T15:28:57.112Z,6.83
2022-12-25T15:31:30.838Z,6.83
2022-12-25T15:33:58.601Z,6.83
2022-12-25T15:36:25.099Z,6.85
2022-12-25T15:38:51.747Z,6.85
2022-12-25T15:41:38.343Z,6.83
2022-12-25T15:44:05.353Z,6.78
2022-12-25T15:46:31.932Z,6.80
2022-12-25T15:48:58.431Z,6.79
2022-12-25T15:51:24.875Z,6.77
2022-12-25T15:53:51.483Z,6.76
2022-12-25T15:56:17.933Z,6.72
2022-12-25T15:58:44.371Z,6.74
2022-12-25T16:01:14.936Z,6.76
2022-12-25T16:03:42.397Z,6.74
2022-12-25T16:06:12.677Z,6.72
2022-12-25T16:08:39.126Z,6.71
2022-12-25T16:11:05.701Z,6.68
2022-12-25T16:13:32.197Z,6.67
2022-12-25T16:15:58.725Z,6.67
2022-12-25T16:18:25.167Z,6.68
2022-12-25T16:20:51.913Z,6.69
2022-12-25T16:23:18.336Z,6.71
2022-12-25T16:25:44.889Z,6.67
2022-12-25T16:28:11.307Z,6.67
2022-12-25T16:30:38.395Z,6.69
2022-12-25T16:33:04.917Z,6.68
2022-12-25T16:35:31.603Z,6.69
2022-12-25T16:37:58.071Z,6.69
2022-12-25T16:40:24.502Z,6.68
2022-12-25T16:42:50.931Z,6.67
2022-12-25T16:45:17.493Z,6.66
2022-12-25T16:47:43.928Z,6.68
2022-12-25T16:50:10.787Z,6.67
2022-12-25T16:52:37.280Z,6.66
2022-12-25T16:55:04.019Z,6.66
2022-12-25T16:57:31.655Z,6.64
2022-12-25T16:59:58.138Z,6.62
2022-12-25T17:02:24.746Z,6.64
2022-12-25T17:04:51.434Z,6.67
2022-12-25T17:07:17.987Z,6.67
2022-12-25T17:09:47.356Z,6.66
2022-12-25T17:12:13.773Z,6.65
2022-12-25T17:14:40.211Z,6.67
2022-12-25T17:17:06.721Z,6.68
2022-12-25T17:19:33.189Z,6.66
2022-12-25T17:21:59.657Z,6.65
2022-12-25T17:24:26.543Z,6.64
2022-12-25T17:26:52.979Z,6.61
2022-12-25T17:29:22.371Z,6.59
2022-12-25T17:31:49.419Z,6.57
2022-12-25T17:34:15.970Z,6.57
2022-12-25T17:36:42.545Z,6.63
2022-12-25T17:39:09.405Z,6.64
2022-12-25T17:41:35.897Z,6.66
2022-12-25T17:44:02.344Z,6.68
2022-12-25T17:46:29.669Z,6.67
2022-12-25T17:48:57.239Z,6.67
2022-12-25T17:51:26.021Z,6.68
2022-12-25T17:53:54.198Z,6.72
2022-12-25T17:56:21.128Z,6.72
2022-12-25T17:58:55.388Z,6.72
2022-12-25T18:01:22.372Z,6.74
2022-12-25T18:03:49.114Z,6.74
2022-12-25T18:06:17.145Z,6.74
2022-12-25T18:08:43.889Z,6.73
2022-12-25T18:11:12.725Z,6.72
2022-12-25T18:13:39.156Z,6.71
2022-12-25T18:16:06.806Z,6.72
2022-12-25T18:18:33.598Z,6.73
2022-12-25T18:21:00.158Z,6.73
2022-12-25T18:23:26.599Z,6.74
2022-12-25T18:25:53.118Z,6.76
2022-12-25T18:28:19.677Z,6.78
2022-12-25T18:30:46.258Z,6.81
2022-12-25T18:33:12.720Z,6.78
2022-12-25T18:35:42.609Z,6.79
2022-12-25T18:38:10.079Z,6.79
2022-12-25T18:40:43.484Z,6.77
2022-12-25T18:43:10.163Z,6.74
2022-12-25T18:45:36.700Z,6.76
2022-12-25T18:48:03.549Z,6.76
2022-12-25T18:50:30.291Z,6.80
2022-12-25T18:52:56.727Z,6.81
2022-12-25T18:55:23.187Z,6.80
2022-12-25T18:57:49.653Z,6.81
2022-12-25T19:00:17.386Z,6.81
2022-12-25T19:02:44.972Z,6.81
2022-12-25T19:05:12.118Z,6.77
2022-12-25T19:07:38.803Z,6.79
2022-12-25T19:10:07.154Z,6.84
2022-12-25T19:12:33.619Z,6.81
2022-12-25T19:15:02.371Z,6.80
2022-12-25T19:17:31.872Z,6.80
2022-12-25T19:20:01.857Z,6.80
2022-12-25T19:22:33.181Z,6.81
2022-12-25T19:24:59.708Z,6.85
2022-12-25T19:27:27.346Z,6.88
2022-12-25T19:29:53.811Z,6.91
2022-12-25T19:32:20.295Z,6.90
2022-12-25T19:34:47.781Z,6.91
2022-12-25T19:37:14.198Z,6.93
2022-12-25T19:39:40.857Z,6.96
2022-12-25T19:42:07.271Z,6.99
2022-12-25T19:44:33.705Z,6.99
2022-12-25T19:47:00.214Z,6.99
2022-12-25T19:49:26.672Z,6.97
2022-12-25T19:51:53.107Z,6.95
2022-12-25T19:54:20.241Z,6.99
2022-12-25T19:56:47.298Z,7.00
2022-12-25T19:59:13.930Z,6.96
2022-12-25T20:01:41.779Z,6.97
2022-12-25T20:04:08.428Z,6.97
2022-12-25T20:06:35.801Z,6.97
2022-12-25T20:09:05.789Z,6.99
2022-12-25T20:11:32.905Z,7.02
2022-12-25T20:13:59.355Z,7.04
2022-12-25T20:16:25.949Z,7.04
2022-12-25T20:18:52.468Z,7.04
2022-12-25T20:21:20.789Z,7.01
2022-12-25T20:23:48.342Z,6.99
2022-12-25T20:26:15.450Z,7.00
2022-12-25T20:28:42.002Z,7.01
2022-12-25T20:31:11.118Z,7.04
2022-12-25T20:33:37.658Z,7.05
2022-12-25T20:36:04.546Z,7.06
2022-12-25T20:38:31.033Z,7.07
2022-12-25T20:43:52.831Z,7.05
2022-12-25T20:46:19.409Z,7.07
2022-12-25T20:48:45.924Z,7.06
2022-12-25T20:51:13.834Z,7.08
2022-12-25T20:53:40.562Z,7.09
2022-12-25T20:56:09.899Z,7.09
2022-12-25T20:58:36.528Z,7.10
2022-12-25T21:01:20.972Z,7.09
2022-12-25T21:03:47.683Z,7.08
2022-12-25T21:06:14.181Z,7.07
2022-12-25T21:08:40.793Z,7.06
2022-12-25T21:11:07.532Z,7.06
2022-12-25T21:13:38.448Z,7.04
2022-12-25T21:16:10.189Z,7.04
2022-12-25T21:18:36.844Z,7.05
2022-12-25T21:21:04.391Z,7.06
2022-12-25T21:23:32.237Z,7.07
2022-12-25T21:26:00.025Z,7.09
2022-12-25T21:28:27.579Z,7.06
2022-12-25T21:30:54.148Z,7.02
2022-12-25T21:33:20.661Z,6.99
2022-12-25T21:35:47.238Z,6.97
2022-12-25T21:38:13.727Z,6.96
2022-12-25T21:40:44.539Z,6.98
2022-12-25T21:43:13.889Z,6.95
2022-12-25T21:45:40.336Z,6.94
2022-12-25T21:48:06.783Z,6.95
2022-12-25T21:50:38.946Z,6.94
2022-12-25T21:53:08.366Z,6.95
2022-12-25T21:55:34.835Z,6.94
2022-12-25T21:58:03.278Z,6.93
2022-12-25T22:00:29.744Z,6.93
2022-12-25T22:02:57.593Z,6.92
2022-12-25T22:05:24.178Z,6.92
2022-12-25T22:07:53.002Z,6.94
2022-12-25T22:10:19.464Z,6.95
2022-12-25T22:12:45.942Z,6.95
2022-12-25T22:15:12.408Z,6.98
2022-12-25T22:17:39.915Z,6.98
2022-12-25T22:20:08.122Z,6.97
2022-12-25T22:22:34.572Z,6.99
2022-12-25T22:25:01.863Z,7.00
2022-12-25T22:27:35.992Z,6.99
2022-12-25T22:30:02.691Z,6.99
2022-12-25T22:32:29.209Z,7.01
2022-12-25T22:34:55.710Z,7.06
2022-12-25T22:37:22.133Z,7.07
2022-12-25T22:39:48.577Z,7.09
2022-12-25T22:42:15.063Z,7.16
2022-12-25T22:44:41.533Z,7.14
2022-12-25T22:47:08.080Z,7.06
2022-12-25T22:49:34.551Z,7.04
2022-12-25T22:52:00.983Z,7.08
2022-12-25T22:54:28.890Z,7.10
2022-12-25T22:56:55.701Z,7.13
2022-12-25T22:59:23.622Z,7.14
2022-12-25T23:01:51.844Z,7.09
2022-12-25T23:04:18.462Z,7.10
2022-12-25T23:06:46.420Z,7.12
2022-12-25T23:09:18.877Z,7.15
2022-12-25T23:11:48.837Z,7.14
2022-12-25T23:14:15.368Z,7.10
2022-12-25T23:16:41.891Z,7.07
2022-12-25T23:19:08.465Z,7.04
2022-12-25T23:21:34.945Z,7.04
2022-12-25T23:24:01.572Z,6.98
2022-12-25T23:26:27.998Z,6.94
2022-12-25T23:28:54.448Z,6.95
2022-12-25T23:31:24.480Z,6.95
2022-12-25T23:33:51.150Z,6.96
2022-12-25T23:36:17.705Z,6.98
2022-12-25T23:38:44.134Z,7.00
2022-12-25T23:41:10.645Z,6.96
2022-12-25T23:43:37.042Z,6.96
2022-12-25T23:46:03.629Z,6.95
2022-12-25T23:48:30.085Z,6.96
2022-12-25T23:50:56.551Z,6.91
2022-12-25T23:53:23.086Z,6.88
2022-12-25T23:55:55.391Z,6.85
2022-12-25T23:58:22.361Z,6.79
